KSAA/SAA METAR and TAF weather

Enter ICAO airport designator
Station Type Date Time Source
KSAA METAR 2019/04/21 21:55 UTC NOAA

KSAA 212155Z AUTO 08003G14KT 10SM -TSRA BKN032 OVC037 07/03 A2996 RMK AO2 LTG DSNT SE AND W


Station Type Date Time Source
KSAA Decoded METAR 2019/04/21 21:55 UTC NOAA

Station name not available
Apr 21, 2019 - 05:55 PM EDT / 2019.04.21 2155 UTC
Wind: from the E (080 degrees) at 3 MPH (3 KT) gusting to 16 MPH (14 KT):0
Visibility: 10 mile(s):0
Sky conditions: overcast
Weather: light rain with thunder; Lightning observed
Temperature: 44 F (7 C)
Dew Point: 37 F (3 C)
Relative Humidity: 75%
Pressure (altimeter): 29.96 in. Hg (1014 hPa)
ob: KSAA 212155Z AUTO 08003G14KT 10SM -TSRA BKN032 OVC037 07/03 A2996 RMK AO2 LTG DSNT SE AND W
cycle: 22

Station Type Date Time Source
KSAA TAF UTC NOAA

Error!

Example: see airport list